createdAt,value
2022-11-20T00:01:18.303Z,86.77
2022-11-20T00:03:45.938Z,86.69
2022-11-20T00:06:18.120Z,86.73
2022-11-20T00:08:45.447Z,86.58
2022-11-20T00:11:16.170Z,86.66
2022-11-20T00:13:44.665Z,86.97
2022-11-20T00:16:15.889Z,86.86
2022-11-20T00:18:45.535Z,86.65
2022-11-20T00:21:14.333Z,86.87
2022-11-20T00:23:41.668Z,87.01
2022-11-20T00:26:10.904Z,87.03
2022-11-20T00:28:37.540Z,87.26
2022-11-20T00:31:09.680Z,87.06
2022-11-20T00:33:36.345Z,87.20
2022-11-20T00:36:07.163Z,87.37
2022-11-20T00:38:34.297Z,87.41
2022-11-20T00:41:03.753Z,87.59
2022-11-20T00:43:30.229Z,87.64
2022-11-20T00:46:04.232Z,87.53
2022-11-20T00:48:30.952Z,87.59
2022-11-20T00:50:58.103Z,87.85
2022-11-20T00:53:24.670Z,87.92
2022-11-20T00:56:05.846Z,87.96
2022-11-20T00:58:34.338Z,87.96
2022-11-20T01:01:03.328Z,88.10
2022-11-20T01:03:32.877Z,88.20
2022-11-20T01:06:07.662Z,88.34
2022-11-20T01:08:35.553Z,88.36
2022-11-20T01:11:03.899Z,88.28
2022-11-20T01:13:37.268Z,88.27
2022-11-20T01:16:31.643Z,88.42
2022-11-20T01:19:00.043Z,88.38
2022-11-20T01:21:34.352Z,88.35
2022-11-20T01:24:01.918Z,88.64
2022-11-20T01:26:31.220Z,88.60
2022-11-20T01:28:58.895Z,88.95
2022-11-20T01:31:26.836Z,88.81
2022-11-20T01:33:54.840Z,88.72
2022-11-20T01:36:23.115Z,88.63
2022-11-20T01:38:54.343Z,88.78
2022-11-20T01:41:38.376Z,89.14
2022-11-20T01:44:05.892Z,89.04
2022-11-20T01:47:00.951Z,89.03
2022-11-20T01:49:46.736Z,89.60
2022-11-20T01:52:28.021Z,89.30
2022-11-20T01:55:35.304Z,89.38
2022-11-20T01:58:02.866Z,89.19
2022-11-20T02:00:29.177Z,89.17
2022-11-20T02:02:59.189Z,89.05
2022-11-20T02:05:44.796Z,89.28
2022-11-20T02:08:12.145Z,89.40
2022-11-20T02:10:38.482Z,89.32
2022-11-20T02:13:21.515Z,89.23
2022-11-20T02:15:48.752Z,89.46
2022-11-20T02:18:19.011Z,89.45
2022-11-20T02:20:48.532Z,89.57
2022-11-20T02:23:51.037Z,89.99
2022-11-20T02:26:19.937Z,90.00
2022-11-20T02:28:46.226Z,90.16
2022-11-20T02:31:12.486Z,90.06
2022-11-20T02:33:38.750Z,90.31
2022-11-20T02:36:05.474Z,90.11
2022-11-20T02:38:31.905Z,90.32
2022-11-20T02:40:58.166Z,90.44
2022-11-20T02:43:24.453Z,90.22
2022-11-20T02:45:50.751Z,90.06
2022-11-20T02:48:17.006Z,90.11
2022-11-20T02:50:43.355Z,90.20
2022-11-20T02:53:09.706Z,89.98
2022-11-20T02:55:36.489Z,90.00
2022-11-20T02:58:03.033Z,89.99
2022-11-20T03:00:29.341Z,89.81
2022-11-20T03:02:55.671Z,89.91
2022-11-20T03:05:21.947Z,89.81
2022-11-20T03:07:48.235Z,89.95
2022-11-20T03:10:14.661Z,90.01
2022-11-20T03:12:40.990Z,90.13
2022-11-20T03:15:07.820Z,89.82
2022-11-20T03:17:34.062Z,90.14
2022-11-20T03:20:00.376Z,90.12
2022-11-20T03:22:30.250Z,89.88
2022-11-20T03:24:56.549Z,90.00
2022-11-20T03:27:22.848Z,89.92
2022-11-20T03:29:49.085Z,90.29
2022-11-20T03:32:15.345Z,90.10
2022-11-20T03:34:41.591Z,90.21
2022-11-20T03:37:07.905Z,90.24
2022-11-20T03:39:34.201Z,90.34
2022-11-20T03:42:00.458Z,90.27
2022-11-20T03:44:26.749Z,90.59
2022-11-20T03:46:53.065Z,90.60
2022-11-20T03:49:19.799Z,90.51
2022-11-20T03:51:46.488Z,90.43
2022-11-20T03:54:12.748Z,90.38
2022-11-20T03:56:39.796Z,90.49
2022-11-20T03:59:06.591Z,90.53
2022-11-20T04:01:38.718Z,90.79
2022-11-20T04:04:05.141Z,90.49
2022-11-20T04:06:37.293Z,90.79
2022-11-20T04:09:04.695Z,90.52
2022-11-20T04:11:33.854Z,90.66
2022-11-20T04:14:02.471Z,90.75
2022-11-20T04:16:34.705Z,90.69
2022-11-20T04:19:03.328Z,90.45
2022-11-20T04:21:29.620Z,90.48
2022-11-20T04:23:56.566Z,90.58
2022-11-20T04:26:25.684Z,90.66
2022-11-20T04:28:52.210Z,90.40
2022-11-20T04:31:22.451Z,90.50
2022-11-20T04:33:49.851Z,90.86
2022-11-20T04:36:17.376Z,90.89
2022-11-20T04:38:43.872Z,90.60
2022-11-20T04:41:18.958Z,90.85
2022-11-20T04:43:50.782Z,91.06
2022-11-20T04:46:18.786Z,90.77
2022-11-20T04:48:45.119Z,90.74
2022-11-20T04:51:12.623Z,90.96
2022-11-20T04:53:40.620Z,90.93
2022-11-20T04:56:09.303Z,91.16
2022-11-20T04:58:35.724Z,90.83
2022-11-20T05:01:07.975Z,91.01
2022-11-20T05:03:37.386Z,91.15
2022-11-20T05:06:09.448Z,91.15
2022-11-20T05:08:35.897Z,91.46
2022-11-20T05:11:14.501Z,91.38
2022-11-20T05:13:41.682Z,91.42
2022-11-20T05:16:14.307Z,91.16
2022-11-20T05:18:41.810Z,91.26
2022-11-20T05:21:09.778Z,91.32
2022-11-20T05:23:36.922Z,91.46
2022-11-20T05:26:04.563Z,91.49
2022-11-20T05:28:32.275Z,91.63
2022-11-20T05:31:07.207Z,91.76
2022-11-20T05:33:35.027Z,92.01
2022-11-20T05:36:02.985Z,92.22
2022-11-20T05:38:29.350Z,91.98
2022-11-20T05:40:55.649Z,91.86
2022-11-20T05:43:21.988Z,92.20
2022-11-20T05:45:54.578Z,91.99
2022-11-20T05:48:21.304Z,92.10
2022-11-20T05:50:48.638Z,92.28
2022-11-20T05:53:14.959Z,92.17
2022-11-20T05:55:41.226Z,92.16
2022-11-20T05:58:07.806Z,92.07
2022-11-20T06:00:35.586Z,92.25
2022-11-20T06:03:02.263Z,92.03
2022-11-20T06:05:28.703Z,92.60
2022-11-20T06:07:54.950Z,92.29
2022-11-20T06:10:21.224Z,92.30
2022-11-20T06:12:47.621Z,92.50
2022-11-20T06:15:14.019Z,92.63
2022-11-20T06:17:40.271Z,92.49
2022-11-20T06:20:07.162Z,92.44
2022-11-20T06:22:33.476Z,92.30
2022-11-20T06:24:59.726Z,92.32
2022-11-20T06:27:27.113Z,92.36
2022-11-20T06:29:53.354Z,92.65
2022-11-20T06:32:19.686Z,92.59
2022-11-20T06:34:45.958Z,92.35
2022-11-20T06:37:12.258Z,92.61
2022-11-20T06:39:38.568Z,92.50
2022-11-20T06:42:04.928Z,92.65
2022-11-20T06:44:31.190Z,92.70
2022-11-20T06:46:57.429Z,93.06
2022-11-20T06:49:24.152Z,92.95
2022-11-20T06:51:50.797Z,92.74
2022-11-20T06:54:17.113Z,93.02
2022-11-20T06:56:48.188Z,93.04
2022-11-20T06:59:14.974Z,92.81
2022-11-20T07:01:41.493Z,92.60
2022-11-20T07:04:07.902Z,92.67
2022-11-20T07:06:34.167Z,92.85
2022-11-20T07:09:00.430Z,92.93
2022-11-20T07:11:26.719Z,93.04
2022-11-20T07:13:53.068Z,92.75
2022-11-20T07:16:19.364Z,92.77
2022-11-20T07:18:50.177Z,92.85
2022-11-20T07:21:17.278Z,92.98
2022-11-20T07:23:43.572Z,92.94
2022-11-20T07:26:11.198Z,93.03
2022-11-20T07:28:37.967Z,92.92
2022-11-20T07:31:05.213Z,92.69
2022-11-20T07:33:31.599Z,92.82
2022-11-20T07:36:01.752Z,92.70
2022-11-20T07:38:28.829Z,92.94
2022-11-20T07:40:58.774Z,92.91
2022-11-20T07:43:25.465Z,92.81
2022-11-20T07:45:51.743Z,92.97
2022-11-20T07:48:18.007Z,93.10
2022-11-20T07:50:44.280Z,93.14
2022-11-20T07:53:10.558Z,93.09
2022-11-20T07:55:36.794Z,92.78
2022-11-20T07:58:03.115Z,93.06
2022-11-20T08:00:29.590Z,93.06
2022-11-20T08:02:56.322Z,93.30
2022-11-20T08:05:22.582Z,93.06
2022-11-20T08:07:49.582Z,92.77
2022-11-20T08:10:16.434Z,92.85
2022-11-20T08:13:07.123Z,92.92
2022-11-20T08:15:34.209Z,92.79
2022-11-20T08:18:30.174Z,92.77
2022-11-20T08:20:55.521Z,92.63
2022-11-20T08:23:23.219Z,92.71
2022-11-20T08:25:51.126Z,92.62
2022-11-20T08:28:21.206Z,92.60
2022-11-20T08:30:50.038Z,92.63
2022-11-20T08:33:17.493Z,92.64
2022-11-20T08:35:44.048Z,92.60
2022-11-20T08:38:10.298Z,92.53
2022-11-20T08:40:36.619Z,92.55
2022-11-20T08:43:02.899Z,92.34
2022-11-20T08:45:33.639Z,92.39
2022-11-20T08:48:03.054Z,92.34
2022-11-20T08:50:31.859Z,92.42
2022-11-20T08:53:05.690Z,92.45
2022-11-20T08:55:33.113Z,92.43
2022-11-20T08:58:04.202Z,92.38
2022-11-20T09:00:30.572Z,92.37
2022-11-20T09:02:58.743Z,92.25
2022-11-20T09:05:25.042Z,92.15
2022-11-20T09:07:51.579Z,92.11
2022-11-20T09:10:25.369Z,92.26
2022-11-20T09:12:55.255Z,92.28
2022-11-20T09:15:22.793Z,92.46
2022-11-20T09:17:53.328Z,92.22
2022-11-20T09:20:19.657Z,92.43
2022-11-20T09:22:45.978Z,92.22
2022-11-20T09:25:12.231Z,92.39
2022-11-20T09:27:38.551Z,92.53
2022-11-20T09:30:05.606Z,92.48
2022-11-20T09:32:31.953Z,92.34
2022-11-20T09:34:58.200Z,92.41
2022-11-20T09:37:24.477Z,92.36
2022-11-20T09:39:50.812Z,92.33
2022-11-20T09:42:59.177Z,92.47
2022-11-20T09:45:41.431Z,92.32
2022-11-20T09:48:40.739Z,92.16
2022-11-20T09:51:37.020Z,91.81
2022-11-20T09:54:20.796Z,91.99
2022-11-20T09:56:55.345Z,91.89
2022-11-20T09:59:27.546Z,91.98
2022-11-20T10:01:55.893Z,91.99
2022-11-20T10:04:23.319Z,92.08
2022-11-20T10:07:31.549Z,92.00
2022-11-20T10:09:58.824Z,91.96
2022-11-20T10:12:45.765Z,92.01
2022-11-20T10:15:21.717Z,92.24
2022-11-20T10:17:50.722Z,92.07
2022-11-20T10:20:34.639Z,91.97
2022-11-20T10:23:38.897Z,92.07
2022-11-20T10:26:47.389Z,91.97
2022-11-20T10:29:17.110Z,92.11
2022-11-20T10:32:00.451Z,92.24
2022-11-20T10:34:38.996Z,92.20
2022-11-20T10:37:35.326Z,92.13
2022-11-20T10:40:17.515Z,91.83
2022-11-20T10:42:56.339Z,92.17
2022-11-20T10:45:25.755Z,92.15
2022-11-20T10:47:57.241Z,92.31
2022-11-20T10:50:23.692Z,92.35
2022-11-20T10:53:05.071Z,92.16
2022-11-20T10:55:50.924Z,91.87
2022-11-20T10:58:29.128Z,92.09
2022-11-20T11:01:15.804Z,92.17
2022-11-20T11:03:43.792Z,92.14
2022-11-20T11:06:42.096Z,91.96
2022-11-20T11:09:23.706Z,91.82
2022-11-20T11:11:50.447Z,91.87
2022-11-20T11:14:16.732Z,91.91
2022-11-20T11:16:59.435Z,92.10
2022-11-20T11:19:26.121Z,92.15
2022-11-20T11:21:56.707Z,92.21
2022-11-20T11:24:43.926Z,92.33
2022-11-20T11:27:17.174Z,92.33
2022-11-20T11:29:45.712Z,92.32
2022-11-20T11:32:20.952Z,92.55
2022-11-20T11:35:05.080Z,92.43
2022-11-20T11:37:36.116Z,92.32
2022-11-20T11:40:23.354Z,92.34
2022-11-20T11:42:56.196Z,92.47
2022-11-20T11:45:22.711Z,92.40
2022-11-20T11:47:51.865Z,92.50
2022-11-20T11:50:20.431Z,92.49
2022-11-20T11:53:03.789Z,92.29
2022-11-20T11:55:38.148Z,92.36
2022-11-20T11:58:36.402Z,92.44
2022-11-20T12:01:34.421Z,92.50
2022-11-20T12:04:18.864Z,92.20
2022-11-20T12:06:50.465Z,92.18
2022-11-20T12:09:19.524Z,92.17
2022-11-20T12:11:49.949Z,92.24
2022-11-20T12:14:27.881Z,92.39
2022-11-20T12:16:57.787Z,92.41
2022-11-20T12:19:24.957Z,92.28
2022-11-20T12:22:06.358Z,92.39
2022-11-20T12:25:06.988Z,92.21
2022-11-20T12:27:41.991Z,92.06
2022-11-20T12:30:11.848Z,92.06
2022-11-20T12:32:56.115Z,91.99
2022-11-20T12:35:54.567Z,91.92
2022-11-20T12:38:29.912Z,92.08
2022-11-20T12:41:43.103Z,92.07
2022-11-20T12:44:41.304Z,92.15
2022-11-20T12:47:22.580Z,92.20
2022-11-20T12:50:02.527Z,92.31
2022-11-20T12:52:57.122Z,92.54
2022-11-20T12:55:34.711Z,92.35
2022-11-20T12:58:23.934Z,92.32
2022-11-20T13:01:32.606Z,92.47
2022-11-20T13:04:10.471Z,92.50
2022-11-20T13:06:37.805Z,92.53
2022-11-20T13:09:11.667Z,92.57
2022-11-20T13:12:02.104Z,92.58
2022-11-20T13:14:37.905Z,92.54
2022-11-20T13:17:29.035Z,92.46
2022-11-20T13:20:00.843Z,92.43
2022-11-20T13:22:44.141Z,92.48
2022-11-20T13:25:22.208Z,92.46
2022-11-20T13:27:49.358Z,92.40
2022-11-20T13:30:19.323Z,92.53
2022-11-20T13:33:00.061Z,92.46
2022-11-20T13:35:28.146Z,92.70
2022-11-20T13:38:10.975Z,92.73
2022-11-20T13:40:50.295Z,92.71
2022-11-20T13:43:32.658Z,92.80
2022-11-20T13:46:04.529Z,92.75
2022-11-20T13:48:47.145Z,92.74
2022-11-20T13:51:29.847Z,92.72
2022-11-20T13:54:18.369Z,92.73
2022-11-20T13:57:08.443Z,92.77
2022-11-20T13:59:56.913Z,92.73
2022-11-20T14:02:26.999Z,92.89
2022-11-20T14:04:56.985Z,92.96
2022-11-20T14:07:32.270Z,92.96
2022-11-20T14:09:58.883Z,92.88
2022-11-20T14:12:31.315Z,92.87
2022-11-20T14:14:58.673Z,92.95
2022-11-20T14:17:32.312Z,92.89
2022-11-20T14:20:06.238Z,93.03
2022-11-20T14:22:32.834Z,92.82
2022-11-20T14:25:15.760Z,93.01
2022-11-20T14:27:44.739Z,93.12
2022-11-20T14:30:26.965Z,93.10
2022-11-20T14:32:56.635Z,92.97
2022-11-20T14:35:41.009Z,93.13
2022-11-20T14:38:13.729Z,93.06
2022-11-20T14:40:40.044Z,93.21
2022-11-20T14:43:24.060Z,93.07
2022-11-20T14:45:59.643Z,93.32
2022-11-20T14:48:50.478Z,93.24
2022-11-20T14:51:41.741Z,93.07
2022-11-20T14:54:16.691Z,93.07
2022-11-20T14:56:58.068Z,93.08
2022-11-20T14:59:26.323Z,93.15
2022-11-20T15:02:19.191Z,93.16
2022-11-20T15:04:51.121Z,93.25
2022-11-20T15:07:35.980Z,93.19
2022-11-20T15:10:04.275Z,93.27
2022-11-20T15:12:32.696Z,93.32
2022-11-20T15:15:01.468Z,93.56
2022-11-20T15:17:27.735Z,93.62
2022-11-20T15:19:55.083Z,93.44
2022-11-20T15:22:21.354Z,93.42
2022-11-20T15:24:47.684Z,93.53
2022-11-20T15:27:14.012Z,93.59
2022-11-20T15:29:41.784Z,93.59
2022-11-20T15:32:13.387Z,93.61
2022-11-20T15:34:40.075Z,93.68
2022-11-20T15:37:06.383Z,93.72
2022-11-20T15:39:32.703Z,93.84
2022-11-20T15:41:59.018Z,94.03
2022-11-20T15:44:25.511Z,94.21
2022-11-20T15:46:52.386Z,94.29
2022-11-20T15:49:23.884Z,94.13
2022-11-20T15:51:52.781Z,94.30
2022-11-20T15:54:22.408Z,94.47
2022-11-20T15:56:52.494Z,94.48
2022-11-20T15:59:19.378Z,94.82
2022-11-20T16:01:45.863Z,94.66
2022-11-20T16:04:14.768Z,94.50
2022-11-20T16:06:41.110Z,94.63
2022-11-20T16:09:07.448Z,94.81
2022-11-20T16:11:36.656Z,94.86
2022-11-20T16:14:20.497Z,95.06
2022-11-20T16:16:47.657Z,95.49
2022-11-20T16:19:15.789Z,95.29
2022-11-20T16:21:42.897Z,94.90
2022-11-20T16:24:12.968Z,95.02
2022-11-20T16:26:39.901Z,94.95
2022-11-20T16:29:07.212Z,94.85
2022-11-20T16:31:34.431Z,94.91
2022-11-20T16:34:08.573Z,95.25
2022-11-20T16:36:41.404Z,94.88
2022-11-20T16:39:09.491Z,94.84
2022-11-20T16:41:36.434Z,94.93
2022-11-20T16:44:07.817Z,94.94
2022-11-20T16:46:34.143Z,95.14
2022-11-20T16:49:03.995Z,94.91
2022-11-20T16:51:33.412Z,95.10
2022-11-20T16:54:08.429Z,95.08
2022-11-20T16:56:35.517Z,95.35
2022-11-20T16:59:02.673Z,95.46
2022-11-20T17:01:30.445Z,95.46
2022-11-20T17:03:59.805Z,95.22
2022-11-20T17:06:29.197Z,95.19
2022-11-20T17:08:56.763Z,95.09
2022-11-20T17:11:23.922Z,95.26
2022-11-20T17:13:50.274Z,95.24
2022-11-20T17:16:19.391Z,95.24
2022-11-20T17:18:46.241Z,95.32
2022-11-20T17:21:12.722Z,95.34
2022-11-20T17:23:40.811Z,95.16
2022-11-20T17:26:10.022Z,95.32
2022-11-20T17:28:37.975Z,95.41
2022-11-20T17:31:10.615Z,95.16
2022-11-20T17:33:38.689Z,95.21
2022-11-20T17:36:07.257Z,95.24
2022-11-20T17:38:34.343Z,95.35
2022-11-20T17:41:09.171Z,95.35
2022-11-20T17:43:36.512Z,95.26
2022-11-20T17:46:12.657Z,95.24
2022-11-20T17:48:43.540Z,95.51
2022-11-20T17:51:12.567Z,95.35
2022-11-20T17:53:41.525Z,95.40
2022-11-20T17:56:23.851Z,95.13
2022-11-20T17:58:50.331Z,95.35
2022-11-20T18:01:17.961Z,95.36
2022-11-20T18:03:45.176Z,95.38
2022-11-20T18:06:14.758Z,95.44
2022-11-20T18:08:41.190Z,95.42
2022-11-20T18:11:13.591Z,95.34
2022-11-20T18:14:03.566Z,95.31
2022-11-20T18:16:31.934Z,95.17
2022-11-20T18:18:59.692Z,95.06
2022-11-20T18:21:27.553Z,95.13
2022-11-20T18:23:55.324Z,95.30
2022-11-20T18:26:22.959Z,95.31
2022-11-20T18:28:50.464Z,95.30
2022-11-20T18:31:17.061Z,95.29
2022-11-20T18:33:43.454Z,95.38
2022-11-20T18:36:17.742Z,95.55
2022-11-20T18:38:46.157Z,95.48
2022-11-20T18:41:30.528Z,95.56
2022-11-20T18:44:13.116Z,95.39
2022-11-20T18:46:39.491Z,95.49
2022-11-20T18:49:05.733Z,95.57
2022-11-20T18:51:33.469Z,95.45
2022-11-20T18:53:59.807Z,95.48
2022-11-20T18:56:26.071Z,95.72
2022-11-20T18:58:52.344Z,95.66
2022-11-20T19:01:18.744Z,95.80
2022-11-20T19:03:46.068Z,95.85
2022-11-20T19:06:13.586Z,95.95
2022-11-20T19:08:40.117Z,95.97
2022-11-20T19:11:07.800Z,95.87
2022-11-20T19:13:35.296Z,95.76
2022-11-20T19:16:12.279Z,95.85
2022-11-20T19:18:38.525Z,95.59
2022-11-20T19:21:16.910Z,95.59
2022-11-20T19:23:43.273Z,95.78
2022-11-20T19:26:09.795Z,95.71
2022-11-20T19:28:36.915Z,95.72
2022-11-20T19:31:04.895Z,95.75
2022-11-20T19:33:32.452Z,95.67
2022-11-20T19:36:16.903Z,95.88
2022-11-20T19:38:48.960Z,95.81
2022-11-20T19:41:18.814Z,95.61
2022-11-20T19:43:49.238Z,95.68
2022-11-20T19:46:20.274Z,95.82
2022-11-20T19:48:46.898Z,95.76
2022-11-20T19:51:16.479Z,95.98
2022-11-20T19:53:42.842Z,96.07
2022-11-20T19:56:10.310Z,95.95
2022-11-20T19:58:37.756Z,95.93
2022-11-20T20:01:09.189Z,95.82
2022-11-20T20:03:35.887Z,95.78
2022-11-20T20:06:08.916Z,95.93
2022-11-20T20:08:36.381Z,95.66
2022-11-20T20:11:10.957Z,95.63
2022-11-20T20:13:37.874Z,95.63
2022-11-20T20:16:09.157Z,95.70
2022-11-20T20:18:35.692Z,95.74
2022-11-20T20:21:05.075Z,95.48
2022-11-20T20:23:32.259Z,95.72
2022-11-20T20:25:59.039Z,95.40
2022-11-20T20:28:26.285Z,95.56
2022-11-20T20:30:53.364Z,95.62
2022-11-20T20:33:20.346Z,95.37
2022-11-20T20:35:48.170Z,95.24
2022-11-20T20:38:15.148Z,95.45
2022-11-20T20:40:51.668Z,95.26
2022-11-20T20:43:17.982Z,95.48
2022-11-20T20:45:48.614Z,95.47
2022-11-20T20:48:16.457Z,95.08
2022-11-20T20:50:52.005Z,95.02
2022-11-20T20:53:18.662Z,94.92
2022-11-20T20:56:02.196Z,94.71
2022-11-20T20:58:29.798Z,94.27
2022-11-20T21:01:07.532Z,94.17
2022-11-20T21:03:35.198Z,94.01
2022-11-20T21:06:02.574Z,94.01
2022-11-20T21:08:29.355Z,93.88
2022-11-20T21:11:13.374Z,93.96
2022-11-20T21:13:42.122Z,93.75
2022-11-20T21:16:10.048Z,93.64
2022-11-20T21:18:36.383Z,93.71
2022-11-20T21:21:24.184Z,93.68
2022-11-20T21:23:52.562Z,93.48
2022-11-20T21:26:20.250Z,93.40
2022-11-20T21:28:47.078Z,93.61
2022-11-20T21:31:18.468Z,93.43
2022-11-20T21:33:46.386Z,93.47
2022-11-20T21:36:15.293Z,93.57
2022-11-20T21:38:41.889Z,93.53
2022-11-20T21:41:10.267Z,93.32
2022-11-20T21:43:37.049Z,93.42
2022-11-20T21:46:09.481Z,93.40
2022-11-20T21:48:38.874Z,93.38
2022-11-20T21:51:08.198Z,93.41
2022-11-20T21:53:35.039Z,93.55
2022-11-20T21:56:03.497Z,93.66
2022-11-20T21:58:30.783Z,93.55
2022-11-20T22:00:57.458Z,93.66
2022-11-20T22:03:24.131Z,93.55
2022-11-20T22:05:57.243Z,93.60
2022-11-20T22:08:25.276Z,93.42
2022-11-20T22:10:59.521Z,93.23
2022-11-20T22:13:42.943Z,93.39
2022-11-20T22:16:09.813Z,93.42
2022-11-20T22:18:40.826Z,93.21
2022-11-20T22:21:07.561Z,93.38
2022-11-20T22:23:34.621Z,92.95
2022-11-20T22:26:03.729Z,93.04
2022-11-20T22:28:30.250Z,93.04
2022-11-20T22:30:58.825Z,93.20
2022-11-20T22:33:30.176Z,93.12
2022-11-20T22:36:08.212Z,93.14
2022-11-20T22:38:39.288Z,92.97
2022-11-20T22:41:10.302Z,93.21
2022-11-20T22:43:38.355Z,93.13
2022-11-20T22:46:10.798Z,93.13
2022-11-20T22:48:39.452Z,93.46
2022-11-20T22:51:08.589Z,93.37
2022-11-20T22:53:35.405Z,93.41
2022-11-20T22:56:02.513Z,93.41
2022-11-20T22:58:30.460Z,93.81
2022-11-20T23:01:14.652Z,93.86
2022-11-20T23:03:43.660Z,94.01
2022-11-20T23:06:11.168Z,93.90
2022-11-20T23:08:38.918Z,94.00
2022-11-20T23:11:08.734Z,94.15
2022-11-20T23:13:35.734Z,93.83
2022-11-20T23:16:03.320Z,93.99
2022-11-20T23:18:29.980Z,94.00
2022-11-20T23:20:56.326Z,93.75
2022-11-20T23:23:22.822Z,93.84
2022-11-20T23:25:49.122Z,93.77
2022-11-20T23:28:15.341Z,93.98
2022-11-20T23:30:41.585Z,93.83
2022-11-20T23:33:07.870Z,93.50
2022-11-20T23:35:38.903Z,93.45
2022-11-20T23:38:05.342Z,93.48
2022-11-20T23:40:31.622Z,93.54
2022-11-20T23:43:13.888Z,93.47
2022-11-20T23:45:41.293Z,93.45
2022-11-20T23:48:07.677Z,93.29
2022-11-20T23:50:34.407Z,93.27
2022-11-20T23:53:00.718Z,93.50
2022-11-20T23:55:27.578Z,93.22
2022-11-20T23:57:53.839Z,93.47
